createdAt,value
2019-05-10T00:01:21.130Z,70.73
2019-05-10T00:04:10.038Z,70.68
2019-05-10T00:06:58.990Z,70.81
2019-05-10T00:09:30.184Z,70.82
2019-05-10T00:12:08.569Z,70.81
2019-05-10T00:14:46.669Z,70.66
2019-05-10T00:17:19.649Z,70.57
2019-05-10T00:19:50.751Z,70.61
2019-05-10T00:22:22.127Z,70.55
2019-05-10T00:25:04.029Z,70.66
2019-05-10T00:27:27.210Z,70.67
2019-05-10T00:29:58.389Z,70.65
2019-05-10T00:32:29.415Z,70.64
2019-05-10T00:35:00.411Z,70.59
2019-05-10T00:37:31.427Z,70.46
2019-05-10T00:40:02.385Z,70.71
2019-05-10T00:42:34.465Z,70.62
2019-05-10T00:45:07.318Z,70.60
2019-05-10T00:47:38.321Z,70.60
2019-05-10T00:50:09.349Z,70.61
2019-05-10T00:52:41.450Z,70.70
2019-05-10T00:55:19.141Z,70.63
2019-05-10T00:57:44.995Z,70.52
2019-05-10T01:00:15.985Z,70.66
2019-05-10T01:02:46.962Z,70.66
2019-05-10T01:05:18.366Z,70.87
2019-05-10T01:07:49.595Z,70.89
2019-05-10T01:10:20.696Z,70.71
2019-05-10T01:12:51.718Z,70.76
2019-05-10T01:15:22.752Z,70.67
2019-05-10T01:17:53.743Z,70.54
2019-05-10T01:20:24.801Z,70.59
2019-05-10T01:22:56.144Z,70.60
2019-05-10T01:25:35.354Z,70.50
2019-05-10T01:27:59.957Z,70.52
2019-05-10T01:30:31.063Z,70.72
2019-05-10T01:33:02.047Z,70.89
2019-05-10T01:35:33.164Z,70.79
2019-05-10T01:38:04.176Z,70.93
2019-05-10T01:40:35.336Z,70.84
2019-05-10T01:43:06.256Z,70.79
2019-05-10T01:45:37.410Z,70.83
2019-05-10T01:48:08.594Z,70.88
2019-05-10T01:50:39.665Z,70.76
2019-05-10T01:53:10.745Z,70.77
2019-05-10T01:55:51.482Z,70.88
2019-05-10T01:58:14.640Z,71.03
2019-05-10T02:00:45.702Z,70.93
2019-05-10T02:03:16.815Z,71.06
2019-05-10T02:05:48.093Z,70.99
2019-05-10T02:08:19.465Z,71.07
2019-05-10T02:10:50.623Z,71.12
2019-05-10T02:13:21.713Z,71.11
2019-05-10T02:15:52.887Z,71.15
2019-05-10T02:18:23.971Z,71.18
2019-05-10T02:20:55.071Z,71.14
2019-05-10T02:23:26.293Z,71.17
2019-05-10T02:26:09.007Z,71.13
2019-05-10T02:28:30.189Z,71.14
2019-05-10T02:31:01.286Z,71.37
2019-05-10T02:33:32.398Z,71.46
2019-05-10T02:36:03.767Z,71.49
2019-05-10T02:38:34.781Z,71.48
2019-05-10T02:41:05.912Z,71.45
2019-05-10T02:43:37.095Z,71.35
2019-05-10T02:46:08.311Z,71.27
2019-05-10T02:48:39.473Z,71.23
2019-05-10T02:51:10.653Z,71.12
2019-05-10T02:53:41.845Z,71.13
2019-05-10T02:56:29.647Z,71.22
2019-05-10T02:58:46.670Z,71.19
2019-05-10T03:01:18.253Z,71.21
2019-05-10T03:03:49.422Z,71.22
2019-05-10T03:06:20.650Z,71.25
2019-05-10T03:08:53.120Z,71.27
2019-05-10T03:11:25.421Z,71.41
2019-05-10T03:13:56.572Z,71.43
2019-05-10T03:16:27.760Z,71.49
2019-05-10T03:18:58.813Z,71.51
2019-05-10T03:21:30.510Z,71.46
2019-05-10T03:24:01.664Z,71.44
2019-05-10T03:26:49.565Z,71.32
2019-05-10T03:29:05.669Z,71.32
2019-05-10T03:31:36.879Z,71.26
2019-05-10T03:34:07.945Z,71.28
2019-05-10T03:36:39.011Z,71.37
2019-05-10T03:39:10.155Z,71.41
2019-05-10T03:41:41.188Z,71.43
2019-05-10T03:44:12.326Z,71.54
2019-05-10T03:46:43.432Z,71.60
2019-05-10T03:49:14.627Z,71.47
2019-05-10T03:51:45.621Z,71.44
2019-05-10T03:54:16.786Z,71.60
2019-05-10T03:56:47.889Z,71.69
2019-05-10T03:59:20.040Z,71.80
2019-05-10T04:01:51.236Z,71.94
2019-05-10T04:04:22.506Z,71.97
2019-05-10T04:06:53.489Z,72.00
2019-05-10T04:09:24.768Z,71.88
2019-05-10T04:11:55.872Z,72.16
2019-05-10T04:14:26.960Z,72.22
2019-05-10T04:16:58.017Z,72.02
2019-05-10T04:19:29.255Z,71.93
2019-05-10T04:22:00.436Z,71.89
2019-05-10T04:24:35.947Z,71.71
2019-05-10T04:27:04.425Z,71.71
2019-05-10T04:29:35.526Z,71.59
2019-05-10T04:32:06.718Z,71.41
2019-05-10T04:34:37.799Z,71.30
2019-05-10T04:37:08.852Z,71.18
2019-05-10T04:39:39.919Z,71.04
2019-05-10T04:42:11.043Z,70.90
2019-05-10T04:44:42.225Z,70.91
2019-05-10T04:47:13.405Z,71.11
2019-05-10T04:49:44.578Z,71.12
2019-05-10T04:52:15.653Z,71.15
2019-05-10T04:54:46.743Z,71.03
2019-05-10T04:57:17.724Z,70.63
2019-05-10T04:59:48.870Z,70.30
2019-05-10T05:02:22.179Z,70.19
2019-05-10T05:04:53.832Z,69.88
2019-05-10T05:07:25.056Z,69.81
2019-05-10T05:09:56.443Z,69.76
2019-05-10T05:12:27.646Z,69.68
2019-05-10T05:14:58.948Z,69.71
2019-05-10T05:17:30.062Z,69.70
2019-05-10T05:20:01.292Z,69.79
2019-05-10T05:22:32.434Z,69.72
2019-05-10T05:25:04.909Z,69.46
2019-05-10T05:27:36.162Z,69.34
2019-05-10T05:30:07.570Z,69.22
2019-05-10T05:32:44.304Z,69.50
2019-05-10T05:35:15.412Z,68.76
2019-05-10T05:37:46.066Z,68.55
2019-05-10T05:40:17.163Z,68.52
2019-05-10T05:42:48.219Z,68.35
2019-05-10T05:45:20.345Z,68.44
2019-05-10T05:47:51.444Z,69.32
2019-05-10T05:50:22.656Z,69.04
2019-05-10T05:52:54.035Z,68.78
2019-05-10T05:55:30.577Z,68.25
2019-05-10T05:58:04.526Z,67.60
2019-05-10T06:00:37.608Z,66.95
2019-05-10T06:03:05.135Z,66.24
2019-05-10T06:05:37.253Z,65.61
2019-05-10T06:08:21.441Z,65.08
2019-05-10T06:10:43.877Z,64.67
2019-05-10T06:13:14.396Z,64.38
2019-05-10T06:15:45.501Z,64.33
2019-05-10T06:18:16.708Z,64.08
2019-05-10T06:20:47.985Z,63.80
2019-05-10T06:23:19.263Z,63.86
2019-05-10T06:25:50.384Z,63.98
2019-05-10T06:28:26.834Z,64.36
2019-05-10T06:30:54.198Z,63.80
2019-05-10T06:33:25.317Z,63.45
2019-05-10T06:35:56.460Z,63.14
2019-05-10T06:38:27.619Z,63.18
2019-05-10T06:40:59.645Z,62.45
2019-05-10T06:43:30.815Z,62.08
2019-05-10T06:46:01.973Z,61.28
2019-05-10T06:48:33.805Z,60.69
2019-05-10T06:51:09.780Z,60.76
2019-05-10T06:53:42.301Z,61.24
2019-05-10T06:56:10.614Z,61.76
2019-05-10T06:58:41.679Z,61.81
2019-05-10T07:01:12.823Z,62.17
2019-05-10T07:03:43.817Z,62.69
2019-05-10T07:06:14.846Z,61.82
2019-05-10T07:08:46.105Z,61.75
2019-05-10T07:11:17.499Z,61.37
2019-05-10T07:13:52.793Z,61.54
2019-05-10T07:16:24.411Z,63.32
2019-05-10T07:18:54.991Z,61.73
2019-05-10T07:21:27.009Z,60.58
2019-05-10T07:23:58.071Z,60.48
2019-05-10T07:26:29.054Z,60.94
2019-05-10T07:29:00.243Z,59.23
2019-05-10T07:31:31.387Z,58.55
2019-05-10T07:34:02.566Z,57.41
2019-05-10T07:36:33.644Z,57.41
2019-05-10T07:39:08.385Z,56.23
2019-05-10T07:41:40.801Z,56.15
2019-05-10T07:44:14.971Z,55.14
2019-05-10T07:46:49.728Z,55.20
2019-05-10T07:49:23.791Z,53.42
2019-05-10T07:51:52.169Z,52.03
2019-05-10T07:54:23.427Z,52.74
2019-05-10T07:56:54.811Z,53.43
2019-05-10T07:59:30.404Z,50.85
2019-05-10T08:02:05.783Z,49.42
2019-05-10T08:04:33.692Z,49.79
2019-05-10T08:07:07.554Z,48.70
2019-05-10T08:09:44.726Z,48.72
2019-05-10T08:12:14.920Z,50.96
2019-05-10T08:14:51.901Z,48.79
2019-05-10T08:17:25.917Z,51.42
2019-05-10T08:19:56.945Z,49.66
2019-05-10T08:22:32.822Z,48.29
2019-05-10T08:25:02.370Z,49.50
2019-05-10T08:27:34.679Z,50.85
2019-05-10T08:30:24.361Z,49.97
2019-05-10T08:32:39.504Z,49.89
2019-05-10T08:35:16.221Z,49.75
2019-05-10T08:37:43.581Z,49.80
2019-05-10T08:40:19.709Z,49.31
2019-05-10T08:42:54.643Z,49.28
2019-05-10T08:45:22.665Z,51.27
2019-05-10T08:48:00.745Z,50.19
2019-05-10T08:50:44.228Z,53.61
2019-05-10T08:53:02.330Z,54.56
2019-05-10T08:55:32.472Z,51.91
2019-05-10T08:58:03.604Z,49.78
2019-05-10T09:00:49.422Z,50.95
2019-05-10T09:03:09.736Z,50.09
2019-05-10T09:05:43.128Z,49.06
2019-05-10T09:08:19.495Z,49.21
2019-05-10T09:10:46.144Z,49.36
2019-05-10T09:13:18.411Z,49.34
2019-05-10T09:15:56.064Z,48.94
2019-05-10T09:18:23.027Z,48.54
2019-05-10T09:21:00.359Z,47.96
2019-05-10T09:23:27.011Z,47.18
2019-05-10T09:26:03.590Z,46.98
2019-05-10T09:28:32.198Z,46.82
2019-05-10T09:31:17.169Z,46.98
2019-05-10T09:33:43.373Z,47.75
2019-05-10T09:36:09.233Z,47.28
2019-05-10T09:38:43.384Z,46.53
2019-05-10T09:41:13.022Z,46.67
2019-05-10T09:43:48.652Z,46.17
2019-05-10T09:46:17.107Z,45.78
2019-05-10T09:48:48.190Z,45.35
2019-05-10T09:51:27.962Z,45.32
2019-05-10T09:53:52.097Z,45.69
2019-05-10T09:56:23.260Z,45.70
2019-05-10T09:58:54.227Z,45.89
2019-05-10T10:01:25.399Z,47.81
2019-05-10T10:03:58.367Z,48.75
2019-05-10T10:06:29.937Z,48.65
2019-05-10T10:09:01.377Z,49.08
2019-05-10T10:11:32.984Z,48.38
2019-05-10T10:14:07.621Z,46.89
2019-05-10T10:16:38.068Z,47.17
2019-05-10T10:19:09.156Z,46.29
2019-05-10T10:21:40.169Z,45.88
2019-05-10T10:24:15.681Z,46.15
2019-05-10T10:26:44.237Z,48.25
2019-05-10T10:29:17.296Z,49.79
2019-05-10T10:31:55.247Z,48.76
2019-05-10T10:34:21.191Z,50.08
2019-05-10T10:36:52.304Z,51.36
2019-05-10T10:39:24.437Z,49.07
2019-05-10T10:41:57.159Z,47.92
2019-05-10T10:44:28.540Z,48.72
2019-05-10T10:46:59.735Z,53.38
2019-05-10T10:49:32.113Z,53.53
2019-05-10T10:52:05.791Z,54.76
2019-05-10T10:54:39.206Z,52.44
2019-05-10T10:57:08.956Z,51.91
2019-05-10T10:59:40.040Z,50.93
2019-05-10T11:04:46.542Z,47.79
2019-05-10T11:07:16.952Z,47.97
2019-05-10T11:09:48.088Z,45.91
2019-05-10T11:12:21.064Z,45.64
2019-05-10T11:14:52.098Z,46.57
2019-05-10T11:17:23.151Z,49.64
2019-05-10T11:19:54.190Z,49.43
2019-05-10T11:22:27.377Z,47.83
2019-05-10T11:25:01.327Z,48.63
2019-05-10T11:27:31.863Z,49.15
2019-05-10T11:30:02.952Z,49.89
2019-05-10T11:32:34.042Z,51.19
2019-05-10T11:35:05.983Z,49.14
2019-05-10T11:37:37.077Z,48.28
2019-05-10T11:40:11.283Z,48.74
2019-05-10T11:42:43.679Z,47.70
2019-05-10T11:45:15.172Z,48.43
2019-05-10T11:47:47.996Z,46.87
2019-05-10T11:50:28.724Z,47.58
2019-05-10T11:52:51.700Z,47.98
2019-05-10T11:55:22.850Z,48.04
2019-05-10T11:58:02.897Z,46.88
2019-05-10T12:00:33.614Z,46.68
2019-05-10T12:03:07.728Z,46.60
2019-05-10T12:05:34.160Z,46.70
2019-05-10T12:08:05.169Z,46.21
2019-05-10T12:10:43.055Z,46.84
2019-05-10T12:13:18.561Z,46.96
2019-05-10T12:15:42.845Z,47.15
2019-05-10T12:21:00.397Z,44.87
2019-05-10T12:23:30.213Z,46.00
2019-05-10T12:26:50.305Z,45.30
2019-05-10T12:26:59.104Z,46.52
2019-05-10T12:28:29.007Z,46.84
2019-05-10T12:31:07.596Z,47.36
2019-05-10T12:33:42.895Z,46.68
2019-05-10T12:36:22.344Z,46.58
2019-05-10T12:38:45.108Z,45.74
2019-05-10T12:41:16.212Z,45.04
2019-05-10T12:43:51.476Z,46.14
2019-05-10T12:46:24.224Z,45.63
2019-05-10T12:49:08.358Z,45.48
2019-05-10T12:51:40.935Z,45.65
2019-05-10T12:54:12.371Z,46.05
2019-05-10T12:56:45.942Z,46.07
2019-05-10T12:59:16.333Z,46.05
2019-05-10T13:01:47.441Z,45.84
2019-05-10T13:04:18.571Z,46.13
2019-05-10T13:06:49.632Z,46.38
2019-05-10T13:09:35.974Z,46.45
2019-05-10T13:12:03.129Z,47.23
2019-05-10T13:14:29.116Z,46.93
2019-05-10T13:17:03.750Z,47.02
2019-05-10T13:19:32.041Z,46.86
2019-05-10T13:22:06.945Z,48.31
2019-05-10T13:24:36.639Z,46.84
2019-05-10T13:27:07.713Z,46.57
2019-05-10T13:29:40.724Z,46.40
2019-05-10T13:32:14.772Z,46.45
2019-05-10T13:34:44.751Z,46.38
2019-05-10T13:37:23.130Z,46.49
2019-05-10T13:39:48.470Z,48.46
2019-05-10T13:42:20.478Z,49.75
2019-05-10T13:44:51.547Z,47.86
2019-05-10T13:47:22.671Z,47.97
2019-05-10T13:49:53.853Z,49.89
2019-05-10T13:52:30.039Z,47.86
2019-05-10T13:54:58.152Z,47.45
2019-05-10T13:57:29.319Z,47.14
2019-05-10T14:00:02.412Z,46.48
2019-05-10T14:02:34.922Z,46.93
2019-05-10T14:05:11.967Z,46.41
2019-05-10T14:07:39.885Z,46.82
2019-05-10T14:10:11.224Z,47.17
2019-05-10T14:12:42.337Z,46.79
2019-05-10T14:15:20.716Z,46.51
2019-05-10T14:17:56.141Z,46.13
2019-05-10T14:20:27.716Z,47.14
2019-05-10T14:23:01.055Z,48.93
2019-05-10T14:25:36.429Z,48.25
2019-05-10T14:28:09.800Z,48.16
2019-05-10T14:30:38.309Z,48.54
2019-05-10T14:33:14.828Z,48.23
2019-05-10T14:35:42.111Z,48.04
2019-05-10T14:38:13.879Z,49.16
2019-05-10T14:40:47.318Z,49.72
2019-05-10T14:43:18.681Z,49.82
2019-05-10T14:45:58.301Z,50.29
2019-05-10T14:48:35.440Z,51.02
2019-05-10T14:51:11.009Z,51.63
2019-05-10T14:53:38.887Z,52.04
2019-05-10T14:56:14.008Z,52.31
2019-05-10T14:58:44.151Z,52.24
2019-05-10T15:01:15.531Z,52.48
2019-05-10T15:03:47.736Z,52.42
2019-05-10T15:06:19.194Z,52.01
2019-05-10T15:08:50.415Z,51.73
2019-05-10T15:11:26.457Z,51.71
2019-05-10T15:13:54.706Z,51.77
2019-05-10T15:16:30.347Z,51.77
2019-05-10T15:18:58.588Z,51.11
2019-05-10T15:21:30.151Z,51.11
2019-05-10T15:24:03.046Z,51.38
2019-05-10T15:26:43.192Z,51.42
2019-05-10T15:29:07.276Z,51.22
2019-05-10T15:31:38.456Z,51.03
2019-05-10T15:34:09.582Z,51.56
2019-05-10T15:36:40.633Z,52.14
2019-05-10T15:39:11.693Z,51.53
2019-05-10T15:41:42.880Z,55.75
2019-05-10T15:44:14.056Z,55.67
2019-05-10T15:46:45.244Z,52.85
2019-05-10T15:49:21.097Z,51.37
2019-05-10T15:51:55.247Z,50.87
2019-05-10T15:54:21.785Z,50.36
2019-05-10T15:56:55.372Z,50.44
2019-05-10T15:59:26.671Z,50.44
2019-05-10T16:01:57.819Z,51.33
2019-05-10T16:04:28.951Z,55.12
2019-05-10T16:07:00.175Z,55.08
2019-05-10T16:09:31.165Z,54.63
2019-05-10T16:12:08.034Z,54.63
2019-05-10T16:14:39.276Z,54.10
2019-05-10T16:17:10.384Z,54.43
2019-05-10T16:19:42.165Z,54.43
2019-05-10T16:22:13.365Z,54.81
2019-05-10T16:24:44.542Z,52.56
2019-05-10T16:27:15.485Z,52.56
2019-05-10T16:29:46.687Z,50.78
2019-05-10T16:32:17.785Z,49.58
2019-05-10T16:34:49.103Z,48.03
2019-05-10T16:37:20.427Z,47.04
2019-05-10T16:39:51.610Z,46.34
2019-05-10T16:42:27.920Z,46.43
2019-05-10T16:44:55.717Z,47.16
2019-05-10T16:47:26.736Z,45.23
2019-05-10T16:49:57.814Z,44.57
2019-05-10T16:52:28.895Z,44.60
2019-05-10T16:55:03.460Z,45.10
2019-05-10T16:57:37.441Z,45.73
2019-05-10T17:00:10.383Z,46.41
2019-05-10T17:02:41.936Z,46.69
2019-05-10T17:05:15.335Z,47.43
2019-05-10T17:07:45.855Z,47.92
2019-05-10T17:10:17.158Z,48.28
2019-05-10T17:12:48.228Z,49.01
2019-05-10T17:15:19.364Z,49.01
2019-05-10T17:17:50.432Z,49.51
2019-05-10T17:20:21.536Z,49.76
2019-05-10T17:22:52.593Z,50.05
2019-05-10T17:25:23.565Z,50.46
2019-05-10T17:27:57.411Z,50.98
2019-05-10T17:30:28.269Z,51.37
2019-05-10T17:33:03.909Z,51.70
2019-05-10T17:35:36.606Z,51.84
2019-05-10T17:38:07.847Z,52.14
2019-05-10T17:40:42.310Z,52.44
2019-05-10T17:43:14.367Z,52.81
2019-05-10T17:45:44.487Z,53.16
2019-05-10T17:48:15.462Z,53.59
2019-05-10T17:50:47.028Z,54.17
2019-05-10T17:53:18.180Z,54.47
2019-05-10T17:55:55.625Z,54.57
2019-05-10T17:58:27.677Z,54.63
2019-05-10T18:00:56.172Z,54.83
2019-05-10T18:03:27.219Z,55.26
2019-05-10T18:05:58.450Z,55.51
2019-05-10T18:08:29.635Z,55.73
2019-05-10T18:11:03.991Z,55.85
2019-05-10T18:13:35.616Z,56.26
2019-05-10T18:16:09.476Z,56.38
2019-05-10T18:18:46.302Z,56.77
2019-05-10T18:21:16.140Z,57.04
2019-05-10T18:23:46.156Z,57.26
2019-05-10T18:26:17.396Z,57.39
2019-05-10T18:28:48.819Z,57.63
2019-05-10T18:31:20.045Z,57.84
2019-05-10T18:33:54.544Z,58.00
2019-05-10T18:36:26.724Z,58.16
2019-05-10T18:38:57.039Z,58.38
2019-05-10T18:41:28.273Z,58.56
2019-05-10T18:43:59.496Z,58.79
2019-05-10T18:46:30.574Z,58.83
2019-05-10T18:49:01.715Z,58.91
2019-05-10T18:51:34.615Z,59.07
2019-05-10T18:54:05.937Z,59.20
2019-05-10T18:56:37.100Z,59.34
2019-05-10T18:59:09.255Z,59.44
2019-05-10T19:01:40.830Z,59.67
2019-05-10T19:04:15.599Z,59.82
2019-05-10T19:06:50.024Z,59.94
2019-05-10T19:09:18.719Z,60.15
2019-05-10T19:11:50.046Z,60.27
2019-05-10T19:14:23.820Z,60.31
2019-05-10T19:16:55.442Z,60.46
2019-05-10T19:19:26.654Z,60.48
2019-05-10T19:22:02.959Z,60.60
2019-05-10T19:24:32.233Z,60.72
2019-05-10T19:27:07.591Z,60.77
2019-05-10T19:29:45.536Z,60.84
2019-05-10T19:32:18.194Z,60.95
2019-05-10T19:34:48.376Z,61.03
2019-05-10T19:37:28.860Z,61.05
2019-05-10T19:39:49.789Z,61.15
2019-05-10T19:42:21.045Z,61.27
2019-05-10T19:44:52.096Z,61.35
2019-05-10T19:47:23.185Z,61.37
2019-05-10T19:49:54.237Z,61.44
2019-05-10T19:52:27.867Z,61.51
2019-05-10T19:54:59.171Z,61.67
2019-05-10T19:57:30.330Z,61.81
2019-05-10T20:00:01.689Z,61.86
2019-05-10T20:02:32.843Z,61.92
2019-05-10T20:05:05.359Z,61.93
2019-05-10T20:07:45.498Z,61.99
2019-05-10T20:10:09.313Z,62.03
2019-05-10T20:12:40.603Z,62.01
2019-05-10T20:15:11.703Z,62.05
2019-05-10T20:17:42.866Z,62.11
2019-05-10T20:20:14.077Z,62.14
2019-05-10T20:22:45.663Z,62.15
2019-05-10T20:25:16.789Z,62.17
2019-05-10T20:27:48.107Z,62.18
2019-05-10T20:30:19.316Z,62.24
2019-05-10T20:32:50.408Z,62.29
2019-05-10T20:35:22.711Z,62.39
2019-05-10T20:38:02.117Z,62.46
2019-05-10T20:40:26.665Z,62.52
2019-05-10T20:42:57.900Z,62.58
2019-05-10T20:45:28.971Z,62.56
2019-05-10T20:48:00.315Z,62.60
2019-05-10T20:50:31.536Z,62.57
2019-05-10T20:53:02.745Z,62.52
2019-05-10T20:55:33.949Z,62.54
2019-05-10T20:58:05.545Z,62.58
2019-05-10T21:00:36.849Z,62.56
2019-05-10T21:03:07.952Z,62.57
2019-05-10T21:05:39.210Z,62.60
2019-05-10T21:08:16.912Z,62.70
2019-05-10T21:10:43.329Z,62.68
2019-05-10T21:13:14.499Z,62.65
2019-05-10T21:15:45.537Z,62.70
2019-05-10T21:18:16.693Z,62.81
2019-05-10T21:20:47.638Z,62.74
2019-05-10T21:23:18.744Z,62.75
2019-05-10T21:25:49.855Z,62.68
2019-05-10T21:28:21.060Z,62.69
2019-05-10T21:30:53.595Z,62.75
2019-05-10T21:33:24.920Z,62.77
2019-05-10T21:35:56.115Z,62.72
2019-05-10T21:38:33.095Z,62.64
2019-05-10T21:41:00.023Z,62.64
2019-05-10T21:43:31.225Z,62.64
2019-05-10T21:46:02.376Z,62.57
2019-05-10T21:48:33.663Z,62.49
2019-05-10T21:51:04.704Z,62.46
2019-05-10T21:53:35.757Z,62.41
2019-05-10T21:56:06.839Z,62.50
2019-05-10T21:58:37.816Z,62.49
2019-05-10T22:01:08.829Z,62.42
2019-05-10T22:03:40.051Z,62.38
2019-05-10T22:06:11.121Z,62.26
2019-05-10T22:08:49.571Z,62.12
2019-05-10T22:11:14.853Z,61.94
2019-05-10T22:13:45.855Z,61.83
2019-05-10T22:16:16.883Z,61.73
2019-05-10T22:18:49.542Z,61.56
2019-05-10T22:21:20.573Z,61.38
2019-05-10T22:23:51.746Z,61.21
2019-05-10T22:26:22.696Z,61.01
2019-05-10T22:28:53.805Z,60.95
2019-05-10T22:31:24.960Z,61.04
2019-05-10T22:33:55.938Z,60.91
2019-05-10T22:36:27.310Z,60.68
2019-05-10T22:39:07.109Z,60.77
2019-05-10T22:41:31.139Z,60.77
2019-05-10T22:44:02.451Z,60.74
2019-05-10T22:46:33.454Z,60.48
2019-05-10T22:49:04.614Z,60.43
2019-05-10T22:51:35.533Z,60.74
2019-05-10T22:54:06.564Z,60.84
2019-05-10T22:56:37.579Z,61.14
2019-05-10T22:59:09.140Z,61.30
2019-05-10T23:01:40.185Z,61.12
2019-05-10T23:04:11.242Z,61.19
2019-05-10T23:06:42.175Z,61.33
2019-05-10T23:09:24.017Z,61.61
2019-05-10T23:11:47.079Z,61.80
2019-05-10T23:14:18.131Z,61.96
2019-05-10T23:16:49.131Z,61.92
2019-05-10T23:19:20.310Z,61.67
2019-05-10T23:21:51.387Z,61.57
2019-05-10T23:24:24.229Z,61.44
2019-05-10T23:26:55.373Z,61.30
2019-05-10T23:29:26.449Z,61.13
2019-05-10T23:31:58.833Z,60.98
2019-05-10T23:34:29.958Z,60.91
2019-05-10T23:37:00.964Z,61.03
2019-05-10T23:39:40.252Z,60.89
2019-05-10T23:42:04.868Z,60.84
2019-05-10T23:44:35.919Z,60.75
2019-05-10T23:47:06.992Z,60.62
2019-05-10T23:49:38.036Z,60.74
2019-05-10T23:52:09.248Z,60.76
2019-05-10T23:54:40.369Z,60.78
2019-05-10T23:57:11.446Z,60.82
2019-05-10T23:59:42.511Z,60.82
